Weather at JMSDF Komatsushima Heliport

Public forecast

Using degrees Celsius for public forecast. Weather courtesy of forecast.io.

Current aviation weather report (METAR) for JMSDF Komatsushima Heliport

Report is more than 6 hours old.

Retrieved 2020/11/23 04:55 UTC (2 days ago):

RJOP 230455Z 32015G25KT 280V340 9999 FEW030 18/05 Q1017 RMK 1CU030 A3005

Closest aviation forecast (TAF) to JMSDF Komatsushima Heliport

Closest forecast is Takamatsu Airport, 32.8 nm (60.8 km) WNW. Retrieved 2020/11/25 06:30 UTC (4 hours ago):

TAF TAF RJOT 250505Z 2506/2612 28005KT 9999 FEW020 BKN050 BECMG 2511/2513 15007KT